Time;durP1;ratioP1;P1;durP2;ratioP2;P2;SDS_P1;SDS_P2;PMS_P1;PMS_P2;Temp;Humidity;BMP_temperature;BMP_pressure;BME280_temperature;BME280_humidity;BME280_pressure;Samples;Min_cycle;Max_cycle;Signal;HPM_P1;HPM_P2
2023/11/27 00:00:05;;;;;;;6.27;5.77;;;;;;;6.45;97.45;99850.75;4976067;28;20232;-79
2023/11/27 00:02:31;;;;;;;6.00;5.40;;;;;;;6.55;97.37;99852.34;4976754;28;20228;-79
2023/11/27 00:04:58;;;;;;;6.00;5.60;;;;;;;6.54;97.04;99850.63;4975391;28;20252;-79
2023/11/27 00:07:25;;;;;;;6.67;6.00;;;;;;;6.54;97.54;99848.91;4974530;28;20214;-79
2023/11/27 00:09:51;;;;;;;7.10;6.50;;;;;;;6.62;97.81;99850.53;4975526;28;20213;-79
2023/11/27 00:12:19;;;;;;;6.97;6.33;;;;;;;6.66;96.43;99845.31;4975607;28;20216;-79
2023/11/27 00:14:46;;;;;;;6.20;5.70;;;;;;;6.61;97.50;99852.28;4975310;28;20235;-79
2023/11/27 00:17:12;;;;;;;8.00;7.30;;;;;;;6.63;96.92;99850.53;4975698;28;20204;-78
2023/11/27 00:19:39;;;;;;;7.73;7.07;;;;;;;6.52;96.60;99857.56;4975828;28;20287;-79
2023/11/27 00:22:05;;;;;;;7.70;6.90;;;;;;;6.12;98.03;99861.44;4974348;28;20564;-79
2023/11/27 00:24:32;;;;;;;8.37;7.57;;;;;;;5.67;100.00;99808.31;4975463;28;20232;-79
2023/11/27 00:26:58;;;;;;;9.17;8.47;;;;;;;5.46;100.00;99752.44;4975042;28;20216;-79
2023/11/27 00:29:28;;;;;;;9.50;8.60;;;;;;;5.34;100.00;99697.31;4975675;28;20227;-79
2023/11/27 00:31:54;;;;;;;8.97;8.23;;;;;;;5.48;100.00;99660.09;4982140;28;20208;-79
2023/11/27 00:34:21;;;;;;;8.03;7.33;;;;;;;5.38;100.00;99657.59;4975043;28;20228;-79
2023/11/27 00:36:48;;;;;;;6.23;5.67;;;;;;;5.07;100.00;99646.69;4982636;28;20236;-79
2023/11/27 00:39:14;;;;;;;4.87;4.47;;;;;;;5.20;100.00;99638.84;4975349;28;20208;-79
2023/11/27 00:41:40;;;;;;;4.60;4.27;;;;;;;5.03;100.00;99628.66;4974471;28;20228;-79
2023/11/27 00:44:07;;;;;;;4.33;4.03;;;;;;;5.25;100.00;99618.94;4975311;28;20216;-79
2023/11/27 00:46:35;;;;;;;4.17;3.83;;;;;;;5.20;100.00;99625.91;4975054;28;20688;-80
2023/11/27 00:49:01;;;;;;;3.97;3.53;;;;;;;5.28;100.00;99637.88;4975789;28;20209;-79
2023/11/27 00:51:29;;;;;;;4.17;3.77;;;;;;;5.20;100.00;99641.44;4974859;28;20557;-78
2023/11/27 00:53:55;;;;;;;4.60;4.20;;;;;;;5.28;100.00;99630.13;4975794;28;20212;-78
2023/11/27 00:56:22;;;;;;;4.07;3.60;;;;;;;5.39;100.00;99635.16;4975210;28;20202;-77
2023/11/27 00:58:48;;;;;;;3.80;3.50;;;;;;;5.59;100.00;99632.38;4975629;28;20206;-79
2023/11/27 01:01:15;;;;;;;3.77;2.90;;;;;;;5.61;100.00;99653.94;4978044;28;20234;-79
2023/11/27 01:03:43;;;;;;;3.90;3.23;;;;;;;5.58;100.00;99649.63;4978687;28;20206;-79
2023/11/27 01:06:13;;;;;;;4.33;2.80;;;;;;;5.74;100.00;99668.44;4978318;28;20217;-79
2023/11/27 01:08:40;;;;;;;2.70;2.50;;;;;;;5.85;100.00;99676.09;4979047;28;20206;-79
2023/11/27 01:11:07;;;;;;;3.03;2.83;;;;;;;5.97;100.00;99694.09;4970989;28;20200;-79
2023/11/27 01:13:33;;;;;;;3.23;3.03;;;;;;;6.09;100.00;99697.41;4978522;28;20209;-79
2023/11/27 01:16:00;;;;;;;6.63;3.20;;;;;;;6.13;100.00;99719.81;4978546;28;20675;-79
2023/11/27 01:18:27;;;;;;;4.47;4.17;;;;;;;6.18;100.00;99720.59;4979135;28;20267;-79
2023/11/27 01:20:56;;;;;;;4.07;3.77;;;;;;;6.23;99.74;99731.78;4977752;28;20616;-79
2023/11/27 01:23:22;;;;;;;5.30;3.97;;;;;;;6.19;99.57;99737.03;4978637;28;20707;-78
2023/11/27 01:25:49;;;;;;;4.03;3.73;;;;;;;6.20;98.73;99741.31;4978181;28;20614;-79
2023/11/27 01:28:15;;;;;;;4.30;3.90;;;;;;;6.28;98.38;99755.03;4978996;28;20216;-79
2023/11/27 01:30:41;;;;;;;4.60;4.20;;;;;;;6.21;98.54;99759.44;4977833;28;20210;-78
2023/11/27 01:33:08;;;;;;;4.37;4.07;;;;;;;6.27;98.36;99764.53;4978512;28;20248;-79
2023/11/27 01:35:34;;;;;;;3.87;3.53;;;;;;;6.32;98.40;99764.47;4978544;28;20220;-79
2023/11/27 01:38:02;;;;;;;3.23;3.03;;;;;;;6.31;97.20;99780.94;4977612;28;20206;-79
2023/11/27 01:40:29;;;;;;;3.13;2.93;;;;;;;6.32;97.03;99786.09;4977638;28;20610;-79
2023/11/27 01:42:56;;;;;;;3.13;2.83;;;;;;;6.36;97.19;99786.88;4978009;28;20217;-79
2023/11/27 01:45:22;;;;;;;3.03;2.83;;;;;;;6.43;96.27;99804.09;4977754;28;20254;-79
2023/11/27 01:47:49;;;;;;;2.67;2.47;;;;;;;6.35;96.54;99805.94;4979242;28;20213;-79
2023/11/27 01:50:16;;;;;;;2.73;2.53;;;;;;;6.35;95.59;99808.53;4979017;28;20202;-79
2023/11/27 01:52:43;;;;;;;2.30;2.10;;;;;;;6.34;95.69;99809.38;4978487;28;20206;-78
2023/11/27 01:55:12;;;;;;;2.17;1.90;;;;;;;6.34;95.62;99814.56;4978997;28;20223;-79
2023/11/27 01:57:38;;;;;;;2.50;2.30;;;;;;;6.23;95.40;99806.94;4977907;28;20235;-79
2023/11/27 02:00:06;;;;;;;3.27;2.33;;;;;;;6.20;96.44;99812.13;4986676;28;20214;-79
2023/11/27 02:02:33;;;;;;;2.77;2.53;;;;;;;6.26;96.01;99791.31;4984963;28;20283;-79
2023/11/27 02:04:59;;;;;;;2.37;2.20;;;;;;;6.33;94.90;99803.34;4979761;28;20800;-79
2023/11/27 02:07:26;;;;;;;2.83;2.63;;;;;;;6.31;95.40;99812.88;4978486;28;20209;-79
2023/11/27 02:09:52;;;;;;;2.80;2.60;;;;;;;6.33;94.67;99816.31;4978783;28;20208;-78
2023/11/27 02:12:20;;;;;;;2.53;2.33;;;;;;;6.36;94.34;99818.88;4976760;28;20216;-79
2023/11/27 02:14:49;;;;;;;2.47;2.27;;;;;;;6.34;94.30;99822.34;4979043;28;20232;-79
2023/11/27 02:17:16;;;;;;;2.53;2.40;;;;;;;6.32;93.97;99827.56;4978903;28;20210;-79
2023/11/27 02:19:42;;;;;;;2.80;2.60;;;;;;;6.30;93.90;99816.38;4979762;28;20205;-79
2023/11/27 02:22:09;;;;;;;2.17;2.00;;;;;;;6.24;93.91;99815.56;4977923;28;20640;-79
2023/11/27 02:24:36;;;;;;;2.77;2.57;;;;;;;6.25;94.50;99807.75;4979319;28;20235;-79
2023/11/27 02:27:04;;;;;;;3.53;3.30;;;;;;;6.30;94.29;99802.53;4981912;28;20271;-78
2023/11/27 02:29:30;;;;;;;3.23;3.03;;;;;;;6.29;94.36;99790.47;4984368;28;20216;-79
2023/11/27 02:31:57;;;;;;;3.67;3.47;;;;;;;6.25;93.87;99788.78;4978280;28;20209;-78
2023/11/27 02:34:23;;;;;;;3.80;3.50;;;;;;;6.20;94.41;99785.38;4979152;28;20226;-79
2023/11/27 02:36:49;;;;;;;3.50;3.30;;;;;;;6.25;94.40;99776.66;4977589;28;20216;-78
2023/11/27 02:39:16;;;;;;;4.00;3.70;;;;;;;6.32;94.28;99782.63;4978942;28;20208;-78
2023/11/27 02:41:44;;;;;;;4.17;3.87;;;;;;;6.22;93.85;99779.28;4977560;28;20237;-79
2023/11/27 02:44:10;;;;;;;4.53;4.23;;;;;;;6.17;93.69;99783.69;4977441;28;20204;-79
2023/11/27 02:46:37;;;;;;;5.43;5.00;;;;;;;6.14;94.52;99769.03;4978880;28;20208;-79
2023/11/27 02:49:03;;;;;;;5.40;4.90;;;;;;;6.18;94.78;99769.81;4978827;28;20216;-79
2023/11/27 02:51:30;;;;;;;5.20;4.80;;;;;;;6.23;93.88;99765.47;4978157;28;20210;-77
2023/11/27 02:53:57;;;;;;;5.53;5.13;;;;;;;6.05;94.68;99765.69;4978017;28;20596;-79
2023/11/27 02:56:24;;;;;;;6.87;5.77;;;;;;;6.14;94.56;99757.78;4979912;28;20228;-79
2023/11/27 02:58:53;;;;;;;6.33;5.93;;;;;;;6.16;94.50;99751.72;4975457;28;20244;-79
2023/11/27 03:01:19;;;;;;;7.63;6.90;;;;;;;6.19;94.73;99752.56;4975061;28;20230;-79
2023/11/27 03:03:48;;;;;;;7.80;7.10;;;;;;;6.21;93.87;99748.22;4975483;28;20586;-78
2023/11/27 03:06:14;;;;;;;9.53;7.83;;;;;;;6.19;94.87;99748.25;4967935;28;20229;-79
2023/11/27 03:08:39;;;;;;;8.80;7.70;;;;;;;6.04;94.61;99740.66;4975680;28;20681;-79
2023/11/27 03:11:06;;;;;;;8.60;8.00;;;;;;;6.15;94.97;99728.44;4975647;28;20205;-78
2023/11/27 03:13:33;;;;;;;9.43;8.63;;;;;;;6.21;93.37;99738.72;4974870;28;20209;-79
2023/11/27 03:16:00;;;;;;;9.07;8.27;;;;;;;6.12;94.05;99739.66;4975502;28;20237;-79
2023/11/27 03:18:27;;;;;;;10.13;9.23;;;;;;;6.21;93.79;99737.88;4975212;28;20576;-78
2023/11/27 03:20:53;;;;;;;9.40;8.40;;;;;;;6.24;93.69;99743.00;4974217;28;20633;-79
2023/11/27 03:23:20;;;;;;;10.90;9.90;;;;;;;6.18;93.71;99745.66;4974837;28;20663;-79
2023/11/27 03:25:46;;;;;;;10.17;9.27;;;;;;;6.22;93.60;99736.97;4975809;28;20236;-79
2023/11/27 03:28:13;;;;;;;9.77;8.90;;;;;;;6.28;93.35;99735.19;4978173;28;20204;-79
2023/11/27 03:30:39;;;;;;;10.20;9.40;;;;;;;6.13;94.09;99748.31;4979365;28;20206;-78
2023/11/27 03:33:07;;;;;;;10.97;8.97;;;;;;;5.92;93.38;99744.19;4975561;28;20224;-79
2023/11/27 03:35:33;;;;;;;10.53;9.63;;;;;;;6.03;93.78;99739.78;4974430;28;20220;-79
2023/11/27 03:38:00;;;;;;;11.50;10.23;;;;;;;6.00;94.63;99718.25;4974533;28;20220;-79
2023/11/27 03:40:26;;;;;;;10.93;9.87;;;;;;;6.07;93.73;99712.97;4975157;28;20212;-79
2023/11/27 03:42:53;;;;;;;12.57;10.03;;;;;;;6.08;94.87;99719.84;4974786;28;20677;-78
2023/11/27 03:45:19;;;;;;;10.80;9.80;;;;;;;6.13;94.64;99719.81;4974578;28;20232;-77
2023/11/27 03:47:46;;;;;;;10.77;9.77;;;;;;;6.14;94.81;99709.44;4975000;28;20216;-78
2023/11/27 03:50:13;;;;;;;14.20;10.60;;;;;;;6.19;94.22;99713.72;4973868;28;20209;-79
2023/11/27 03:52:40;;;;;;;11.00;9.83;;;;;;;6.12;93.06;99725.84;4973612;28;20196;-77
2023/11/27 03:55:07;;;;;;;10.93;9.63;;;;;;;6.15;92.78;99725.84;4975009;28;20237;-79
2023/11/27 03:57:33;;;;;;;10.10;9.10;;;;;;;6.19;92.63;99737.88;4974707;28;20700;-79
2023/11/27 04:00:00;;;;;;;11.23;9.97;;;;;;;6.24;92.42;99746.44;4974598;28;20210;-79
2023/11/27 04:02:26;;;;;;;11.40;9.47;;;;;;;6.28;92.31;99753.31;4973862;28;20230;-79
2023/11/27 04:04:53;;;;;;;12.73;10.87;;;;;;;6.31;92.53;99753.25;4974423;28;20233;-78
2023/11/27 04:07:21;;;;;;;15.70;11.30;;;;;;;6.35;92.67;99741.97;4973783;28;20220;-78
2023/11/27 04:09:47;;;;;;;12.70;9.60;;;;;;;6.33;93.18;99732.53;4980181;28;20209;-79
2023/11/27 04:12:15;;;;;;;11.03;9.93;;;;;;;6.33;93.37;99727.34;4974252;28;20214;-79
2023/11/27 04:14:41;;;;;;;10.33;9.40;;;;;;;6.37;93.45;99721.22;4975399;28;20248;-79
2023/11/27 04:17:08;;;;;;;11.37;10.27;;;;;;;6.31;93.63;99718.72;4973692;28;20208;-79
2023/11/27 04:19:34;;;;;;;12.40;11.20;;;;;;;6.31;94.04;99709.19;4975282;28;20205;-79
2023/11/27 04:22:02;;;;;;;11.87;10.77;;;;;;;6.29;93.62;99708.38;4974098;28;20233;-78
2023/11/27 04:24:30;;;;;;;12.33;10.60;;;;;;;6.22;93.82;99703.28;4974178;28;20770;-79
2023/11/27 04:26:56;;;;;;;11.30;10.13;;;;;;;6.25;94.61;99692.88;4974464;28;20217;-79
2023/11/27 04:29:22;;;;;;;12.93;11.67;;;;;;;6.31;94.48;99685.88;4974257;28;20205;-79
2023/11/27 04:31:49;;;;;;;14.87;10.67;;;;;;;6.33;93.67;99685.88;4974865;28;20206;-79
2023/11/27 04:34:15;;;;;;;12.13;10.40;;;;;;;6.34;93.63;99682.38;4973921;28;20241;-79
2023/11/27 04:36:42;;;;;;;11.47;10.37;;;;;;;6.23;94.36;99681.69;4973713;28;20297;-79
2023/11/27 04:39:10;;;;;;;10.53;9.53;;;;;;;6.29;94.09;99669.50;4974815;28;20209;-79
2023/11/27 04:41:38;;;;;;;10.90;9.87;;;;;;;6.29;94.11;99661.72;4974699;28;20229;-79
2023/11/27 04:44:06;;;;;;;10.17;9.33;;;;;;;6.29;93.86;99666.91;4974479;28;20699;-79
2023/11/27 04:46:33;;;;;;;10.37;9.30;;;;;;;6.34;92.88;99674.59;4974473;28;20289;-79
2023/11/27 04:48:59;;;;;;;10.90;9.80;;;;;;;6.30;93.17;99676.41;4974804;28;20689;-79
2023/11/27 04:51:25;;;;;;;14.57;9.90;;;;;;;6.28;93.00;99667.78;4973840;28;20224;-79
2023/11/27 04:53:52;;;;;;;10.30;9.50;;;;;;;6.33;92.89;99675.50;4975016;28;20630;-79
2023/11/27 04:56:18;;;;;;;10.53;9.53;;;;;;;6.40;92.32;99673.66;4975557;28;20229;-79
2023/11/27 04:58:46;;;;;;;10.80;9.90;;;;;;;6.34;92.35;99677.19;4974718;28;20201;-79
2023/11/27 05:01:13;;;;;;;11.93;8.30;;;;;;;6.35;92.76;99678.91;4974303;28;20243;-79
2023/11/27 05:03:39;;;;;;;10.33;9.53;;;;;;;6.33;92.44;99681.53;4974680;28;20713;-79
2023/11/27 05:06:06;;;;;;;10.30;9.27;;;;;;;6.31;92.00;99682.44;4974383;28;20228;-79
2023/11/27 05:08:32;;;;;;;10.63;7.77;;;;;;;6.16;92.29;99680.91;4974833;28;20212;-79
2023/11/27 05:10:59;;;;;;;10.00;9.00;;;;;;;6.20;91.93;99668.75;4982236;28;20210;-79
2023/11/27 05:13:25;;;;;;;10.30;8.57;;;;;;;6.23;91.93;99667.00;4974337;28;20206;-79
2023/11/27 05:15:53;;;;;;;9.40;8.50;;;;;;;6.26;93.20;99664.34;4972868;28;20233;-79
2023/11/27 05:18:20;;;;;;;10.63;9.17;;;;;;;6.28;92.98;99666.91;4975493;28;20209;-79
2023/11/27 05:20:46;;;;;;;13.60;8.80;;;;;;;6.29;92.42;99658.28;4975358;28;20220;-79
2023/11/27 05:23:13;;;;;;;9.87;8.93;;;;;;;6.27;92.49;99660.88;4974221;28;20229;-79
2023/11/27 05:25:39;;;;;;;9.13;8.00;;;;;;;6.32;91.97;99664.28;4976278;28;20234;-77
2023/11/27 05:28:05;;;;;;;8.67;7.93;;;;;;;6.35;91.56;99671.16;4974131;28;20217;-79
2023/11/27 05:30:32;;;;;;;10.07;9.00;;;;;;;6.32;92.01;99673.75;4975370;28;20213;-79
2023/11/27 05:33:00;;;;;;;7.73;7.03;;;;;;;6.33;92.44;99667.72;4975491;28;20209;-79
2023/11/27 05:35:27;;;;;;;9.23;7.90;;;;;;;6.30;91.32;99675.53;4966828;28;20225;-79
2023/11/27 05:37:53;;;;;;;8.93;8.23;;;;;;;6.34;91.54;99679.78;4974735;28;20217;-79
2023/11/27 05:40:20;;;;;;;7.77;7.07;;;;;;;6.34;91.46;99685.84;4974810;28;20617;-79
2023/11/27 05:42:47;;;;;;;9.07;8.13;;;;;;;6.32;91.10;99681.53;4974403;28;20251;-79
2023/11/27 05:45:14;;;;;;;7.07;6.53;;;;;;;6.20;91.53;99664.44;4977251;28;20242;-80
2023/11/27 05:47:40;;;;;;;8.23;7.43;;;;;;;6.20;91.93;99668.75;4981554;28;20216;-79
2023/11/27 05:50:10;;;;;;;8.47;7.67;;;;;;;6.21;91.41;99660.13;4977977;28;20217;-80
2023/11/27 05:52:37;;;;;;;7.80;7.10;;;;;;;6.22;91.20;99669.59;4978019;28;20202;-78
2023/11/27 05:55:04;;;;;;;9.83;7.83;;;;;;;6.24;91.47;99667.84;4977687;28;20225;-79
2023/11/27 05:57:31;;;;;;;8.47;7.63;;;;;;;6.28;90.83;99672.09;4977951;28;20220;-80
2023/11/27 05:59:58;;;;;;;7.13;6.63;;;;;;;6.28;90.80;99675.56;4978629;28;20223;-80
2023/11/27 06:02:24;;;;;;;8.00;7.30;;;;;;;6.24;90.76;99673.88;4977732;28;20231;-79
2023/11/27 06:04:51;;;;;;;6.50;5.97;;;;;;;6.23;91.08;99664.41;4974323;28;20230;-79
2023/11/27 06:07:19;;;;;;;7.73;7.03;;;;;;;6.29;90.50;99658.28;4978606;28;20217;-79
2023/11/27 06:09:45;;;;;;;8.10;7.30;;;;;;;6.29;91.08;99658.28;4979883;28;20216;-80
2023/11/27 06:12:12;;;;;;;9.17;6.93;;;;;;;6.30;90.71;99650.50;4987106;28;20217;-80
2023/11/27 06:14:39;;;;;;;6.80;6.20;;;;;;;6.30;90.84;99653.06;4979351;28;20225;-79
2023/11/27 06:17:06;;;;;;;8.83;6.70;;;;;;;6.33;89.61;99663.38;4979272;28;20767;-79
2023/11/27 06:19:32;;;;;;;6.90;6.40;;;;;;;6.23;90.62;99664.41;4979404;28;20238;-80
2023/11/27 06:21:59;;;;;;;7.50;6.37;;;;;;;6.26;90.20;99664.34;4985626;28;20235;-80
2023/11/27 06:24:27;;;;;;;6.10;5.70;;;;;;;6.13;89.04;99683.53;4984456;28;20225;-79
2023/11/27 06:26:54;;;;;;;6.80;6.20;;;;;;;6.21;89.91;99673.94;4985934;28;20245;-78
2023/11/27 06:29:21;;;;;;;6.27;5.77;;;;;;;6.26;88.93;99672.13;4986106;28;20206;-78
2023/11/27 06:31:47;;;;;;;8.33;6.17;;;;;;;6.29;88.00;99686.78;4985845;28;20201;-79
2023/11/27 06:34:13;;;;;;;6.80;6.30;;;;;;;6.31;88.90;99682.44;4994219;28;20204;-78
2023/11/27 06:36:40;;;;;;;10.07;6.07;;;;;;;6.30;88.85;99679.00;4987288;28;20236;-78
2023/11/27 06:39:08;;;;;;;6.80;6.10;;;;;;;6.25;88.88;99678.19;4995814;28;20276;-79
2023/11/27 06:41:35;;;;;;;6.67;6.13;;;;;;;6.20;89.15;99677.38;4991282;28;20200;-79
2023/11/27 06:44:02;;;;;;;7.30;6.73;;;;;;;6.24;89.51;99666.09;4983156;28;20213;-80
2023/11/27 06:46:29;;;;;;;7.63;6.93;;;;;;;6.31;89.08;99666.88;4979112;28;20604;-80
2023/11/27 06:48:55;;;;;;;7.50;6.50;;;;;;;6.30;89.75;99663.44;4978968;28;20213;-79
2023/11/27 06:51:22;;;;;;;7.57;7.07;;;;;;;6.22;89.58;99659.22;4978109;28;20674;-79
2023/11/27 06:53:48;;;;;;;7.27;6.67;;;;;;;6.26;89.42;99641.00;4980774;28;20208;-80
2023/11/27 06:56:15;;;;;;;7.03;6.40;;;;;;;6.30;89.57;99640.13;4978930;28;20237;-78
2023/11/27 06:58:49;;;;;;;6.80;6.30;;;;;;;6.31;90.74;99625.41;4978725;28;20289;-78
2023/11/27 07:01:16;;;;;;;7.07;6.47;;;;;;;6.30;90.38;99623.69;4978947;28;20596;-79
2023/11/27 07:03:42;;;;;;;7.10;6.40;;;;;;;6.27;90.17;99611.66;4978340;28;20226;-78
2023/11/27 07:06:12;;;;;;;6.70;6.10;;;;;;;6.19;90.37;99603.13;4977287;28;20233;-79
2023/11/27 07:08:38;;;;;;;6.90;6.30;;;;;;;6.23;90.98;99594.44;4978700;28;20208;-79
2023/11/27 07:11:06;;;;;;;6.27;5.73;;;;;;;6.31;89.88;99599.50;5031930;22;20630;-84
2023/11/27 07:13:33;;;;;;;6.37;5.80;;;;;;;6.28;89.79;99604.72;5032938;28;20203;-82
2023/11/27 07:16:00;;;;;;;6.10;5.60;;;;;;;6.33;89.29;99601.19;5036484;28;20218;-83
2023/11/27 07:18:29;;;;;;;6.00;5.50;;;;;;;6.35;89.40;99606.34;5034058;28;20212;-83
2023/11/27 07:20:57;;;;;;;6.47;5.97;;;;;;;6.35;89.58;99608.94;5033037;28;20227;-85
2023/11/27 07:23:24;;;;;;;6.27;5.70;;;;;;;6.38;89.47;99608.03;5033746;28;20613;-82
2023/11/27 07:25:51;;;;;;;6.60;6.00;;;;;;;6.30;89.77;99597.78;5033318;28;20292;-83
2023/11/27 07:28:17;;;;;;;6.83;6.23;;;;;;;6.35;90.14;99591.66;5032838;28;20216;-83
2023/11/27 07:30:44;;;;;;;5.57;5.07;;;;;;;6.36;90.11;99585.59;5032355;28;20223;-80
2023/11/27 07:33:12;;;;;;;6.33;5.83;;;;;;;6.37;89.92;99583.84;5034144;28;20199;-84
2023/11/27 07:35:40;;;;;;;7.03;6.33;;;;;;;6.40;89.89;99580.34;5034411;28;20206;-84
2023/11/27 07:38:07;;;;;;;6.23;5.50;;;;;;;6.43;90.17;99577.72;5035440;28;20232;-80
2023/11/27 07:40:34;;;;;;;6.20;5.80;;;;;;;6.43;89.75;99575.13;5036012;28;20253;-83
2023/11/27 07:43:00;;;;;;;5.60;5.20;;;;;;;6.39;90.09;99579.50;5027408;28;20232;-87
2023/11/27 07:45:29;;;;;;;6.20;5.70;;;;;;;6.39;89.38;99576.91;5033815;28;20230;-86
2023/11/27 07:47:56;;;;;;;6.33;5.83;;;;;;;6.42;89.20;99581.19;5024157;28;20207;-85
2023/11/27 07:50:24;;;;;;;6.93;6.23;;;;;;;6.33;89.84;99579.59;5033818;28;20242;-87
2023/11/27 07:52:50;;;;;;;7.33;6.57;;;;;;;6.37;90.05;99565.72;5030663;28;20676;-86
2023/11/27 07:55:17;;;;;;;5.77;5.33;;;;;;;6.38;89.84;99558.78;5034834;28;20214;-85
2023/11/27 07:57:45;;;;;;;6.33;5.83;;;;;;;6.35;90.43;99555.34;5029551;28;20207;-85
2023/11/27 08:00:16;;;;;;;6.30;5.80;;;;;;;6.39;91.00;99538.03;5034759;28;20230;-85
2023/11/27 08:02:43;;;;;;;6.70;6.20;;;;;;;6.41;90.22;99538.84;5032664;28;20255;-86
2023/11/27 08:05:10;;;;;;;6.10;5.60;;;;;;;6.47;90.15;99540.50;5033553;28;20211;-85
2023/11/27 08:07:38;;;;;;;6.40;5.70;;;;;;;6.49;89.28;99542.16;5017098;28;20203;-86
2023/11/27 08:10:08;;;;;;;6.17;5.67;;;;;;;6.45;89.46;99547.44;5033123;28;20257;-84
2023/11/27 08:12:36;;;;;;;6.40;5.73;;;;;;;6.25;90.14;99545.19;5032438;28;20221;-85
2023/11/27 08:15:04;;;;;;;6.53;5.93;;;;;;;6.17;91.86;99519.38;5034004;28;20211;-82
2023/11/27 08:17:30;;;;;;;6.00;5.33;;;;;;;5.87;93.25;99482.69;5024909;28;20238;-83
2023/11/27 08:19:57;;;;;;;5.93;5.50;;;;;;;6.20;92.29;99479.59;5031896;28;20710;-85
2023/11/27 08:22:23;;;;;;;5.80;5.40;;;;;;;6.26;90.99;99485.53;5030942;28;20226;-84
2023/11/27 08:24:52;;;;;;;5.37;4.97;;;;;;;6.14;91.28;99489.19;5034812;28;20214;-81
2023/11/27 08:27:20;;;;;;;6.23;5.73;;;;;;;6.19;92.08;99478.75;5026555;28;20207;-83
2023/11/27 08:29:47;;;;;;;6.40;5.80;;;;;;;6.22;91.41;99472.66;5034060;28;20214;-83
2023/11/27 08:32:13;;;;;;;5.70;5.23;;;;;;;6.23;91.33;99475.22;5033442;28;20271;-85
2023/11/27 08:34:40;;;;;;;6.03;5.43;;;;;;;6.22;91.67;99470.06;5016614;28;20200;-85
2023/11/27 08:37:09;;;;;;;5.83;5.23;;;;;;;6.25;91.58;99470.88;5031865;28;20206;-84
2023/11/27 08:39:36;;;;;;;5.83;5.43;;;;;;;6.20;91.96;99469.22;5031753;28;20212;-83
2023/11/27 08:42:06;;;;;;;5.43;4.97;;;;;;;6.20;92.37;99451.94;5032804;28;20800;-84
2023/11/27 08:44:32;;;;;;;5.90;5.37;;;;;;;6.22;91.86;99446.75;5033041;28;20235;-82
2023/11/27 08:46:59;;;;;;;5.57;5.07;;;;;;;6.21;91.70;99448.47;5028984;28;20245;-83
2023/11/27 08:49:25;;;;;;;4.63;4.33;;;;;;;6.27;91.78;99444.94;5035174;28;20209;-84
2023/11/27 08:51:52;;;;;;;5.60;4.80;;;;;;;6.29;91.88;99445.75;5032769;28;20231;-84
2023/11/27 08:54:18;;;;;;;5.30;4.90;;;;;;;6.28;91.87;99446.63;5035436;28;20576;-84
2023/11/27 08:56:46;;;;;;;5.47;5.00;;;;;;;6.54;90.19;99452.22;5032798;28;20211;-82
2023/11/27 08:59:14;;;;;;;4.60;4.30;;;;;;;6.60;89.40;99479.78;5032908;28;20209;-80
2023/11/27 09:01:41;;;;;;;5.23;4.83;;;;;;;6.40;90.37;99484.44;5031308;28;20232;-83
2023/11/27 09:04:08;;;;;;;4.73;4.43;;;;;;;6.38;91.16;99462.88;5031866;28;20243;-84
2023/11/27 09:06:35;;;;;;;5.60;5.10;;;;;;;6.32;91.60;99449.16;5034053;28;20267;-83
2023/11/27 09:09:03;;;;;;;5.17;4.67;;;;;;;6.33;92.33;99437.91;5033352;28;20745;-81
2023/11/27 09:11:29;;;;;;;4.97;4.57;;;;;;;6.38;93.18;99419.66;5032543;28;20772;-82
2023/11/27 09:13:56;;;;;;;5.40;5.00;;;;;;;6.42;91.99;99423.94;5031634;28;20294;-84
2023/11/27 09:16:24;;;;;;;6.20;5.60;;;;;;;6.42;92.67;99412.69;5026877;28;20672;-82
2023/11/27 09:18:50;;;;;;;6.03;5.50;;;;;;;6.42;93.16;99404.91;5033941;28;20204;-85
2023/11/27 09:21:17;;;;;;;6.07;5.37;;;;;;;6.46;92.94;99406.56;5032365;28;20720;-81
2023/11/27 09:23:43;;;;;;;5.50;5.10;;;;;;;6.42;93.19;99402.31;5039106;28;20224;-79
2023/11/27 09:26:10;;;;;;;6.37;5.87;;;;;;;6.44;92.73;99405.75;5037068;28;20207;-82
2023/11/27 09:28:36;;;;;;;5.87;5.40;;;;;;;6.48;91.77;99415.16;5035768;28;20213;-84
2023/11/27 09:31:03;;;;;;;6.00;5.47;;;;;;;6.27;90.21;99435.41;5034928;28;20257;-85
2023/11/27 09:33:31;;;;;;;5.90;5.40;;;;;;;6.23;90.31;99458.84;5035357;28;20228;-85
2023/11/27 09:35:58;;;;;;;5.67;5.17;;;;;;;6.50;89.73;99475.63;5036517;28;20252;-81
2023/11/27 09:38:25;;;;;;;5.53;5.03;;;;;;;6.53;88.97;99481.59;5029548;28;20706;-82
2023/11/27 09:40:52;;;;;;;5.63;5.23;;;;;;;6.53;88.31;99491.97;5036818;28;20235;-82
2023/11/27 09:43:19;;;;;;;5.80;5.30;;;;;;;6.46;88.55;99500.75;5037266;28;20232;-81
2023/11/27 09:45:46;;;;;;;5.73;5.23;;;;;;;6.51;88.39;99501.53;5034323;28;20249;-81
2023/11/27 09:48:17;;;;;;;6.63;6.13;;;;;;;6.52;88.59;99495.47;5031594;28;20207;-81
2023/11/27 09:50:46;;;;;;;6.33;5.80;;;;;;;6.61;88.72;99488.41;5035783;28;20250;-85
2023/11/27 09:53:19;;;;;;;6.70;6.03;;;;;;;6.64;88.60;99489.22;5039204;28;20208;-84
2023/11/27 09:55:49;;;;;;;6.60;6.00;;;;;;;6.57;88.42;99492.78;5037407;28;20206;-85
2023/11/27 09:58:17;;;;;;;6.27;5.50;;;;;;;6.53;88.07;99497.16;5034670;28;20597;-83
2023/11/27 10:00:45;;;;;;;5.87;5.37;;;;;;;5.85;88.54;99499.97;5034295;28;20308;-84
2023/11/27 10:03:12;;;;;;;6.53;6.03;;;;;;;6.21;88.65;99483.91;5035322;28;20671;-83
2023/11/27 10:05:39;;;;;;;6.43;5.93;;;;;;;6.04;89.35;99479.00;5035854;28;20643;-84
2023/11/27 10:08:08;;;;;;;6.60;6.00;;;;;;;6.09;90.15;99446.94;5037122;28;20210;-86
2023/11/27 10:10:35;;;;;;;6.20;5.70;;;;;;;6.15;89.67;99426.13;5028246;28;20246;-84
2023/11/27 10:13:03;;;;;;;7.07;6.47;;;;;;;6.24;89.83;99419.06;5036311;28;20205;-85
2023/11/27 10:15:30;;;;;;;6.80;6.20;;;;;;;6.34;89.73;99410.22;5035501;28;20288;-85
2023/11/27 10:17:59;;;;;;;7.90;6.10;;;;;;;6.32;89.37;99404.22;5022386;28;20239;-86
2023/11/27 10:20:26;;;;;;;6.57;6.03;;;;;;;6.20;89.27;99415.66;5035389;28;20229;-84
2023/11/27 10:22:53;;;;;;;5.67;5.13;;;;;;;6.28;88.90;99408.63;5035974;28;20585;-87
2023/11/27 10:25:23;;;;;;;5.70;5.30;;;;;;;6.33;88.99;99414.56;5037639;28;20220;-83
2023/11/27 10:27:56;;;;;;;5.57;5.07;;;;;;;6.39;87.91;99423.97;5036537;28;20698;-85
2023/11/27 10:30:25;;;;;;;5.80;5.30;;;;;;;6.37;87.57;99441.28;5037656;28;20238;-86
2023/11/27 10:32:52;;;;;;;4.90;4.50;;;;;;;6.24;86.91;99448.41;5037172;28;20286;-83
2023/11/27 10:35:20;;;;;;;5.37;4.97;;;;;;;6.32;86.81;99443.97;5030230;28;20593;-83
2023/11/27 10:37:49;;;;;;;5.70;5.00;;;;;;;6.40;86.62;99438.63;5027194;28;20674;-80
2023/11/27 10:40:16;;;;;;;5.97;5.47;;;;;;;6.32;86.56;99445.69;5037114;28;20231;-82
2023/11/27 10:42:48;;;;;;;5.67;5.07;;;;;;;6.32;86.64;99432.72;5035206;28;20207;-81
2023/11/27 10:45:17;;;;;;;6.03;5.53;;;;;;;6.27;87.79;99426.78;5035384;28;20233;-83
2023/11/27 10:47:46;;;;;;;6.20;5.67;;;;;;;6.22;88.28;99403.53;5027669;28;20220;-84
2023/11/27 10:50:14;;;;;;;6.37;5.77;;;;;;;6.26;88.57;99397.41;5034349;28;20231;-84
2023/11/27 10:52:43;;;;;;;6.50;5.90;;;;;;;6.24;88.49;99378.44;5035439;28;20209;-81
2023/11/27 10:55:11;;;;;;;6.50;5.90;;;;;;;6.24;88.54;99362.06;5035114;28;21016;-84
2023/11/27 10:57:39;;;;;;;6.07;5.67;;;;;;;6.26;88.41;99349.91;5035258;28;20207;-83
2023/11/27 11:00:08;;;;;;;6.40;5.80;;;;;;;6.28;88.99;99342.97;5033261;28;20689;-84
2023/11/27 11:02:36;;;;;;;6.07;5.57;;;;;;;6.21;88.50;99344.00;5033566;28;20211;-80
2023/11/27 11:05:07;;;;;;;5.60;5.20;;;;;;;6.23;89.02;99330.13;5033189;28;20230;-83
2023/11/27 11:07:40;;;;;;;6.33;5.70;;;;;;;6.23;88.29;99324.94;5034486;28;20205;-85
2023/11/27 11:10:10;;;;;;;5.83;5.33;;;;;;;6.21;89.24;99315.50;5029999;28;20259;-85
2023/11/27 11:12:40;;;;;;;5.90;5.40;;;;;;;6.25;89.46;99325.75;5031398;28;20210;-85
2023/11/27 11:15:13;;;;;;;6.53;6.00;;;;;;;6.30;88.54;99303.22;5033604;28;20217;-84
2023/11/27 11:17:51;;;;;;;6.30;5.73;;;;;;;6.29;88.62;99316.19;5027251;28;20355;-84
2023/11/27 11:20:28;;;;;;;5.80;5.23;;;;;;;6.30;87.58;99333.44;5036581;28;20238;-85
2023/11/27 11:23:08;;;;;;;5.93;5.43;;;;;;;6.27;87.69;99336.09;5035721;28;20207;-84
2023/11/27 11:25:42;;;;;;;6.17;5.67;;;;;;;6.28;88.08;99330.91;5033898;28;20210;-84
2023/11/27 11:28:15;;;;;;;5.77;5.23;;;;;;;6.24;88.36;99325.78;5033855;28;20631;-84
2023/11/27 11:30:44;;;;;;;5.47;5.07;;;;;;;6.18;87.50;99315.53;5035347;28;20226;-82
2023/11/27 11:33:17;;;;;;;5.63;5.23;;;;;;;6.18;88.00;99308.59;5035977;28;20211;-81
2023/11/27 11:35:50;;;;;;;5.20;4.80;;;;;;;6.05;88.15;99307.16;5034690;28;20207;-85
2023/11/27 11:38:21;;;;;;;5.53;5.03;;;;;;;6.13;87.54;99298.34;5033494;28;20214;-83